createdAt,value
2023-03-03T00:01:45.242Z,69.01
2023-03-03T00:04:13.674Z,68.76
2023-03-03T00:06:42.027Z,68.71
2023-03-03T00:09:10.379Z,68.86
2023-03-03T00:11:38.826Z,68.89
2023-03-03T00:14:19.057Z,69.03
2023-03-03T00:16:49.452Z,69.10
2023-03-03T00:19:19.523Z,69.28
2023-03-03T00:21:49.625Z,69.43
2023-03-03T00:24:40.488Z,69.55
2023-03-03T00:27:19.194Z,69.66
2023-03-03T00:29:48.601Z,69.66
2023-03-03T00:32:43.015Z,69.50
2023-03-03T00:35:35.706Z,69.33
2023-03-03T00:38:20.148Z,69.19
2023-03-03T00:40:48.576Z,69.07
2023-03-03T00:43:19.796Z,69.03
2023-03-03T00:45:52.600Z,69.05
2023-03-03T00:48:30.033Z,68.93
2023-03-03T00:50:59.995Z,69.02
2023-03-03T00:53:29.769Z,69.35
2023-03-03T00:55:58.072Z,69.72
2023-03-03T00:58:27.678Z,70.08
2023-03-03T01:00:59.100Z,70.41
2023-03-03T01:03:36.453Z,70.57
2023-03-03T01:06:05.262Z,70.47
2023-03-03T01:08:35.176Z,70.15
2023-03-03T01:11:16.499Z,69.97
2023-03-03T01:13:46.278Z,69.73
2023-03-03T01:16:19.320Z,69.57
2023-03-03T01:18:50.421Z,69.55
2023-03-03T01:21:19.029Z,69.81
2023-03-03T01:23:47.226Z,69.95
2023-03-03T01:26:16.870Z,69.98
2023-03-03T01:28:45.110Z,70.04
2023-03-03T01:31:13.786Z,70.21
2023-03-03T01:33:42.017Z,70.44
2023-03-03T01:36:10.795Z,70.51
2023-03-03T01:38:40.318Z,70.51
2023-03-03T01:41:13.705Z,70.59
2023-03-03T01:43:46.267Z,70.39
2023-03-03T01:46:27.097Z,70.24
2023-03-03T01:49:16.398Z,70.38
2023-03-03T01:51:50.974Z,70.34
2023-03-03T01:54:26.729Z,70.44
2023-03-03T01:56:57.366Z,70.42
2023-03-03T01:59:29.976Z,70.52
2023-03-03T02:01:58.243Z,70.68
2023-03-03T02:04:26.676Z,70.95
2023-03-03T02:07:00.361Z,70.95
2023-03-03T02:10:02.553Z,71.05
2023-03-03T02:12:52.612Z,71.09
2023-03-03T02:15:37.379Z,70.83
2023-03-03T02:18:11.460Z,70.87
2023-03-03T02:20:43.627Z,70.77
2023-03-03T02:23:21.634Z,70.72
2023-03-03T02:25:58.556Z,70.82
2023-03-03T02:28:31.649Z,70.83
2023-03-03T02:31:03.017Z,70.96
2023-03-03T02:33:31.270Z,70.99
2023-03-03T02:35:59.594Z,71.35
2023-03-03T02:38:30.258Z,71.53
2023-03-03T02:41:17.254Z,71.72
2023-03-03T02:44:05.507Z,71.99
2023-03-03T02:46:36.032Z,72.05
2023-03-03T02:49:04.698Z,71.96
2023-03-03T02:51:34.073Z,71.85
2023-03-03T02:54:02.421Z,71.80
2023-03-03T02:56:33.894Z,71.71
2023-03-03T02:59:02.404Z,71.78
2023-03-03T03:01:37.366Z,71.74
2023-03-03T03:04:12.897Z,71.87
2023-03-03T03:06:44.210Z,72.05
2023-03-03T03:09:14.475Z,72.26
2023-03-03T03:11:42.932Z,72.42
2023-03-03T03:14:18.800Z,72.56
2023-03-03T03:16:47.272Z,72.46
2023-03-03T03:19:15.560Z,72.47
2023-03-03T03:21:45.571Z,72.38
2023-03-03T03:24:14.027Z,72.35
2023-03-03T03:26:45.677Z,72.38
2023-03-03T03:29:14.831Z,72.49
2023-03-03T03:34:14.524Z,72.78
2023-03-03T03:36:43.443Z,73.11
2023-03-03T03:39:32.450Z,73.38
2023-03-03T03:42:00.758Z,73.60
2023-03-03T03:44:30.079Z,73.77
2023-03-03T03:46:59.632Z,73.86
2023-03-03T03:49:28.398Z,73.75
2023-03-03T03:51:58.086Z,73.60
2023-03-03T03:54:28.439Z,73.58
2023-03-03T03:56:57.012Z,73.52
2023-03-03T03:59:25.394Z,73.54
2023-03-03T04:01:54.579Z,73.42
2023-03-03T04:04:24.364Z,73.58
2023-03-03T04:06:53.387Z,73.66
2023-03-03T04:09:23.198Z,73.81
2023-03-03T04:11:51.747Z,74.03
2023-03-03T04:14:22.495Z,74.17
2023-03-03T04:16:51.894Z,74.24
2023-03-03T04:19:20.309Z,74.14
2023-03-03T04:21:53.407Z,74.04
2023-03-03T04:24:22.610Z,74.04
2023-03-03T04:26:51.629Z,73.99
2023-03-03T04:29:20.196Z,74.06
2023-03-03T04:31:49.305Z,74.13
2023-03-03T04:34:18.740Z,74.23
2023-03-03T04:36:47.190Z,74.35
2023-03-03T04:39:21.062Z,74.47
2023-03-03T04:41:50.547Z,74.62
2023-03-03T04:44:19.400Z,74.67
2023-03-03T04:46:47.927Z,74.67
2023-03-03T04:49:17.193Z,74.31
2023-03-03T04:51:46.288Z,74.18
2023-03-03T04:54:16.576Z,73.90
2023-03-03T04:56:45.701Z,73.79
2023-03-03T04:59:15.762Z,73.74
2023-03-03T05:01:46.937Z,73.51
2023-03-03T05:04:15.636Z,73.74
2023-03-03T05:06:45.310Z,73.73
2023-03-03T05:09:15.979Z,73.85
2023-03-03T05:11:47.358Z,73.88
2023-03-03T05:14:17.914Z,73.71
2023-03-03T05:16:49.215Z,73.46
2023-03-03T05:19:17.460Z,73.14
2023-03-03T05:21:46.894Z,72.70
2023-03-03T05:24:15.299Z,72.47
2023-03-03T05:26:44.165Z,72.05
2023-03-03T05:29:35.989Z,71.20
2023-03-03T05:32:13.179Z,70.26
2023-03-03T05:34:45.248Z,69.24
2023-03-03T05:37:13.689Z,68.78
2023-03-03T05:39:55.852Z,68.73
2023-03-03T05:42:49.975Z,68.52
2023-03-03T05:45:40.631Z,68.69
2023-03-03T05:48:25.160Z,69.01
2023-03-03T05:50:53.842Z,68.83
2023-03-03T05:53:22.374Z,68.71
2023-03-03T05:55:50.650Z,68.68
2023-03-03T05:58:20.688Z,68.33
2023-03-03T06:00:49.483Z,68.24
2023-03-03T06:03:24.062Z,68.21
2023-03-03T06:05:52.432Z,68.57
2023-03-03T06:08:22.680Z,68.61
2023-03-03T06:10:51.094Z,68.79
2023-03-03T06:13:19.881Z,68.62
2023-03-03T06:15:49.862Z,68.72
2023-03-03T06:18:21.296Z,68.52
2023-03-03T06:20:54.494Z,68.56
2023-03-03T06:23:25.206Z,68.86
2023-03-03T06:25:55.296Z,69.00
2023-03-03T06:28:25.306Z,69.14
2023-03-03T06:30:55.620Z,69.18
2023-03-03T06:33:27.145Z,69.21
2023-03-03T06:36:00.240Z,68.89
2023-03-03T06:38:28.727Z,68.84
2023-03-03T06:40:58.512Z,68.83
2023-03-03T06:43:27.627Z,68.62
2023-03-03T06:45:56.522Z,68.75
2023-03-03T06:48:30.658Z,68.87
2023-03-03T06:51:00.705Z,69.11
2023-03-03T06:53:33.321Z,69.12
2023-03-03T06:56:09.253Z,69.15
2023-03-03T06:58:42.389Z,69.26
2023-03-03T07:01:20.113Z,69.09
2023-03-03T07:03:49.026Z,68.88
2023-03-03T07:06:36.439Z,68.67
2023-03-03T07:09:10.711Z,68.64
2023-03-03T07:11:46.530Z,68.33
2023-03-03T07:14:18.816Z,68.24
2023-03-03T07:16:57.642Z,68.42
2023-03-03T07:19:34.588Z,68.25
2023-03-03T07:22:18.119Z,68.11
2023-03-03T07:24:49.479Z,68.13
2023-03-03T07:27:24.373Z,68.26
2023-03-03T07:29:54.755Z,68.16
2023-03-03T07:32:40.271Z,68.31
2023-03-03T07:35:40.857Z,68.20
2023-03-03T07:38:19.836Z,68.12
2023-03-03T07:40:50.450Z,67.90
2023-03-03T07:43:28.924Z,68.01
2023-03-03T07:46:02.733Z,68.06
2023-03-03T07:48:37.607Z,67.90
2023-03-03T07:51:13.516Z,67.98
2023-03-03T07:53:45.000Z,67.92
2023-03-03T07:56:27.162Z,67.91
2023-03-03T07:58:56.817Z,68.06
2023-03-03T08:01:29.214Z,68.00
2023-03-03T08:03:57.868Z,68.26
2023-03-03T08:06:35.678Z,68.39
2023-03-03T08:09:42.580Z,68.45
2023-03-03T08:12:19.530Z,68.29
2023-03-03T08:14:48.532Z,68.48
2023-03-03T08:17:31.550Z,68.46
2023-03-03T08:20:00.395Z,68.19
2023-03-03T08:22:36.890Z,68.02
2023-03-03T08:25:10.675Z,68.02
2023-03-03T08:27:39.284Z,68.05
2023-03-03T08:33:04.729Z,67.71
2023-03-03T08:35:34.073Z,67.75
2023-03-03T08:38:06.180Z,67.63
2023-03-03T08:40:35.926Z,67.34
2023-03-03T08:43:06.681Z,67.37
2023-03-03T08:45:35.900Z,67.49
2023-03-03T08:48:06.125Z,67.52
2023-03-03T08:50:37.150Z,67.51
2023-03-03T08:53:06.797Z,67.22
2023-03-03T08:55:40.221Z,66.90
2023-03-03T08:58:08.773Z,66.57
2023-03-03T09:00:38.582Z,66.42
2023-03-03T09:03:26.669Z,66.25
2023-03-03T09:05:56.821Z,66.21
2023-03-03T09:08:27.145Z,66.35
2023-03-03T09:10:59.351Z,66.18
2023-03-03T09:13:33.526Z,65.83
2023-03-03T09:16:02.769Z,65.73
2023-03-03T09:18:38.486Z,65.36
2023-03-03T09:21:37.004Z,65.04
2023-03-03T09:24:05.653Z,64.86
2023-03-03T09:26:46.131Z,64.89
2023-03-03T09:29:14.878Z,64.58
2023-03-03T09:31:59.321Z,64.40
2023-03-03T09:34:43.952Z,63.89
2023-03-03T09:37:24.043Z,63.47
2023-03-03T09:40:32.088Z,63.00
2023-03-03T09:43:11.317Z,62.87
2023-03-03T09:46:25.994Z,62.81
2023-03-03T09:49:26.992Z,62.92
2023-03-03T09:52:10.979Z,63.15
2023-03-03T09:54:59.634Z,63.50
2023-03-03T09:58:08.202Z,64.08
2023-03-03T10:00:54.005Z,64.29
2023-03-03T10:03:46.780Z,64.57
2023-03-03T10:06:53.123Z,64.77
2023-03-03T10:09:45.540Z,64.92
2023-03-03T10:12:41.867Z,65.28
2023-03-03T10:15:50.378Z,65.45
2023-03-03T10:18:33.971Z,65.19
2023-03-03T10:21:06.082Z,64.84
2023-03-03T10:23:50.691Z,64.93
2023-03-03T10:26:43.557Z,64.80
2023-03-03T10:29:48.650Z,65.09
2023-03-03T10:32:56.040Z,65.14
2023-03-03T10:36:04.676Z,65.22
2023-03-03T10:38:51.684Z,65.59
2023-03-03T10:41:42.625Z,65.69
2023-03-03T10:44:26.360Z,65.82
2023-03-03T10:47:29.159Z,66.00
2023-03-03T10:50:05.848Z,65.99
2023-03-03T10:52:44.967Z,65.69
2023-03-03T10:55:54.946Z,65.79
2023-03-03T10:58:51.991Z,65.85
2023-03-03T11:01:37.879Z,65.43
2023-03-03T11:04:28.487Z,64.86
2023-03-03T11:07:11.883Z,64.32
2023-03-03T11:10:21.351Z,63.34
2023-03-03T11:12:54.472Z,63.14
2023-03-03T11:15:45.461Z,63.20
2023-03-03T11:18:35.052Z,63.25
2023-03-03T11:21:10.747Z,63.00
2023-03-03T11:23:45.909Z,62.91
2023-03-03T11:26:28.352Z,62.70
2023-03-03T11:29:16.008Z,62.65
2023-03-03T11:31:52.392Z,62.76
2023-03-03T11:34:37.147Z,62.33
2023-03-03T11:37:09.392Z,62.20
2023-03-03T11:39:37.676Z,62.35
2023-03-03T11:42:34.259Z,61.95
2023-03-03T11:46:19.192Z,61.91
2023-03-03T11:49:11.852Z,61.90
2023-03-03T11:51:54.741Z,61.92
2023-03-03T11:54:51.803Z,62.13
2023-03-03T11:57:40.281Z,62.15
2023-03-03T12:00:38.693Z,62.21
2023-03-03T12:03:23.728Z,62.63
2023-03-03T12:06:16.896Z,63.08
2023-03-03T12:08:53.737Z,63.37
2023-03-03T12:11:32.908Z,63.62
2023-03-03T12:14:54.206Z,63.85
2023-03-03T12:17:32.915Z,63.49
2023-03-03T12:20:09.601Z,63.74
2023-03-03T12:23:30.216Z,63.86
2023-03-03T12:26:02.789Z,63.90
2023-03-03T12:28:59.130Z,64.10
2023-03-03T12:32:08.507Z,63.83
2023-03-03T12:34:59.382Z,63.51
2023-03-03T12:38:00.954Z,63.28
2023-03-03T12:40:34.515Z,63.43
2023-03-03T12:43:16.603Z,63.23
2023-03-03T12:46:28.978Z,63.08
2023-03-03T12:48:56.410Z,63.09
2023-03-03T12:52:07.683Z,63.09
2023-03-03T12:55:05.785Z,63.08
2023-03-03T12:57:39.465Z,63.33
2023-03-03T13:00:27.533Z,63.59
2023-03-03T13:03:54.989Z,63.61
2023-03-03T13:07:01.632Z,63.72
2023-03-03T13:09:39.074Z,63.85
2023-03-03T13:12:47.320Z,64.18
2023-03-03T13:15:32.463Z,64.27
2023-03-03T13:18:05.104Z,64.63
2023-03-03T13:20:52.738Z,64.75
2023-03-03T13:24:04.153Z,65.21
2023-03-03T13:26:36.269Z,65.43
2023-03-03T13:29:28.306Z,65.56
2023-03-03T13:31:57.088Z,65.41
2023-03-03T13:34:50.098Z,65.66
2023-03-03T13:37:23.374Z,65.45
2023-03-03T13:39:59.868Z,65.46
2023-03-03T13:42:44.984Z,65.09
2023-03-03T13:45:34.457Z,65.08
2023-03-03T13:48:39.185Z,65.30
2023-03-03T13:51:29.947Z,65.20
2023-03-03T13:54:12.603Z,65.28
2023-03-03T13:57:09.695Z,65.65
2023-03-03T13:59:44.260Z,65.80
2023-03-03T14:02:28.276Z,65.89
2023-03-03T14:05:05.924Z,66.13
2023-03-03T14:07:37.724Z,66.36
2023-03-03T14:10:18.718Z,66.49
2023-03-03T14:13:01.517Z,66.79
2023-03-03T14:15:31.699Z,66.81
2023-03-03T14:18:36.129Z,67.03
2023-03-03T14:21:09.729Z,66.99
2023-03-03T14:23:58.929Z,66.97
2023-03-03T14:26:26.908Z,66.78
2023-03-03T14:29:15.156Z,66.61
2023-03-03T14:31:43.832Z,66.63
2023-03-03T14:34:10.759Z,66.76
2023-03-03T14:36:39.542Z,66.84
2023-03-03T14:39:35.606Z,66.87
2023-03-03T14:42:40.056Z,67.20
2023-03-03T14:45:35.762Z,67.22
2023-03-03T14:48:49.452Z,67.44
2023-03-03T14:51:44.013Z,67.88
2023-03-03T14:54:21.045Z,67.99
2023-03-03T14:57:01.293Z,68.03
2023-03-03T14:59:29.821Z,68.25
2023-03-03T15:02:17.457Z,68.02
2023-03-03T15:04:45.816Z,68.00
2023-03-03T15:07:41.858Z,68.10
2023-03-03T15:10:11.509Z,67.87
2023-03-03T15:12:41.292Z,68.01
2023-03-03T15:15:20.451Z,68.18
2023-03-03T15:17:54.491Z,68.35
2023-03-03T15:20:42.673Z,68.67
2023-03-03T15:23:41.508Z,68.69
2023-03-03T15:26:20.714Z,68.88
2023-03-03T15:29:04.605Z,69.05
2023-03-03T15:31:36.589Z,69.31
2023-03-03T15:34:04.016Z,69.30
2023-03-03T15:52:03.096Z,69.34
2023-03-03T15:54:41.688Z,69.71
2023-03-03T15:57:18.104Z,69.74
2023-03-03T15:59:56.347Z,69.93
2023-03-03T16:02:35.814Z,70.04
2023-03-03T16:05:33.616Z,69.99
2023-03-03T16:08:17.257Z,70.03
2023-03-03T16:10:56.024Z,69.92
2023-03-03T16:14:04.751Z,69.83
2023-03-03T16:16:45.074Z,69.72
2023-03-03T16:19:38.057Z,69.58
2023-03-03T16:22:59.787Z,69.63
2023-03-03T16:25:31.372Z,69.67
2023-03-03T16:28:26.699Z,69.65
2023-03-03T16:31:54.498Z,69.73
2023-03-03T16:34:52.818Z,69.77
2023-03-03T16:37:29.935Z,69.73
2023-03-03T16:44:19.050Z,69.98
2023-03-03T16:46:53.776Z,69.66
2023-03-03T16:49:43.685Z,69.53
2023-03-03T16:52:17.125Z,69.26
2023-03-03T16:54:54.551Z,69.35
2023-03-03T16:57:28.194Z,69.29
2023-03-03T17:00:12.268Z,69.32
2023-03-03T17:02:47.193Z,69.16
2023-03-03T17:05:18.274Z,69.34
2023-03-03T17:08:20.283Z,69.54
2023-03-03T17:11:05.081Z,69.49
2023-03-03T17:13:59.631Z,69.52
2023-03-03T17:17:28.815Z,69.63
2023-03-03T17:20:19.346Z,69.11
2023-03-03T17:23:09.361Z,69.21
2023-03-03T17:26:04.745Z,69.17
2023-03-03T17:33:08.149Z,69.11
2023-03-03T17:35:51.521Z,69.05
2023-03-03T17:38:21.601Z,69.26
2023-03-03T17:40:58.683Z,69.33
2023-03-03T17:43:35.483Z,69.34
2023-03-03T17:46:04.520Z,69.50
2023-03-03T17:48:52.632Z,69.40
2023-03-03T17:51:22.933Z,69.35
2023-03-03T17:54:04.418Z,69.35
2023-03-03T17:56:46.319Z,69.27
2023-03-03T17:59:51.238Z,69.18
2023-03-03T18:02:41.686Z,69.31
2023-03-03T18:05:33.472Z,69.45
2023-03-03T18:08:28.980Z,69.54
2023-03-03T18:11:08.221Z,69.46
2023-03-03T18:14:03.114Z,69.56
2023-03-03T18:16:42.987Z,69.68
2023-03-03T18:19:23.318Z,69.79
2023-03-03T18:21:57.953Z,69.26
2023-03-03T18:24:28.154Z,69.00
2023-03-03T18:26:56.410Z,68.74
2023-03-03T18:29:27.482Z,68.35
2023-03-03T18:31:58.357Z,68.24
2023-03-03T18:34:39.500Z,68.09
2023-03-03T18:37:30.837Z,68.02
2023-03-03T18:40:01.997Z,67.45
2023-03-03T18:42:40.006Z,67.11
2023-03-03T18:45:27.889Z,66.89
2023-03-03T18:48:12.984Z,66.52
2023-03-03T18:50:50.332Z,65.97
2023-03-03T18:53:27.583Z,65.63
2023-03-03T18:55:58.647Z,65.01
2023-03-03T18:58:26.871Z,64.30
2023-03-03T19:01:08.045Z,63.46
2023-03-03T19:03:36.299Z,62.68
2023-03-03T19:06:09.822Z,62.01
2023-03-03T19:08:55.813Z,61.44
2023-03-03T19:12:00.022Z,61.18
2023-03-03T19:14:30.257Z,61.16
2023-03-03T19:17:22.918Z,61.02
2023-03-03T19:20:15.999Z,61.07
2023-03-03T19:22:50.824Z,61.63
2023-03-03T19:25:26.224Z,62.40
2023-03-03T19:28:15.817Z,63.16
2023-03-03T19:31:12.462Z,63.95
2023-03-03T19:34:02.645Z,64.36
2023-03-03T19:37:03.727Z,64.72
2023-03-03T19:39:51.067Z,65.22
2023-03-03T19:42:46.079Z,65.16
2023-03-03T19:45:32.623Z,65.35
2023-03-03T19:48:08.625Z,65.59
2023-03-03T19:51:01.496Z,65.50
2023-03-03T19:53:41.697Z,65.70
2023-03-03T19:56:38.476Z,65.70
2023-03-03T19:59:18.421Z,65.56
2023-03-03T20:02:13.720Z,65.53
2023-03-03T20:05:01.629Z,65.50
2023-03-03T20:07:57.222Z,65.52
2023-03-03T20:10:46.757Z,65.67
2023-03-03T20:13:29.882Z,65.55
2023-03-03T20:16:17.254Z,65.41
2023-03-03T20:19:02.031Z,65.36
2023-03-03T20:21:32.409Z,65.30
2023-03-03T20:24:04.649Z,65.50
2023-03-03T20:26:39.112Z,65.64
2023-03-03T20:29:47.889Z,65.59
2023-03-03T20:32:20.100Z,65.49
2023-03-03T20:35:20.470Z,65.63
2023-03-03T20:38:09.037Z,65.83
2023-03-03T20:41:07.105Z,66.01
2023-03-03T20:43:47.935Z,66.47
2023-03-03T20:46:41.702Z,66.44
2023-03-03T20:49:22.661Z,66.65
2023-03-03T20:52:25.541Z,66.64
2023-03-03T20:55:15.183Z,66.72
2023-03-03T20:58:07.405Z,66.84
2023-03-03T21:01:03.674Z,66.96
2023-03-03T21:03:42.473Z,67.10
2023-03-03T21:06:17.586Z,67.08
2023-03-03T21:08:53.030Z,67.36
2023-03-03T21:11:40.128Z,67.35
2023-03-03T21:14:24.013Z,67.31
2023-03-03T21:16:57.714Z,67.51
2023-03-03T21:19:25.135Z,67.46
2023-03-03T21:21:53.192Z,67.34
2023-03-03T21:24:50.560Z,67.27
2023-03-03T21:27:29.330Z,67.09
2023-03-03T21:30:14.807Z,67.13
2023-03-03T21:32:47.521Z,67.10
2023-03-03T21:35:23.264Z,67.11
2023-03-03T21:37:56.698Z,67.17
2023-03-03T21:40:26.732Z,67.60
2023-03-03T21:42:58.423Z,67.93
2023-03-03T21:45:26.370Z,67.98
2023-03-03T21:47:54.619Z,67.95
2023-03-03T21:50:22.726Z,68.25
2023-03-03T21:52:51.519Z,68.33
2023-03-03T21:55:18.825Z,68.25
2023-03-03T21:57:47.538Z,68.10
2023-03-03T22:00:14.982Z,67.92
2023-03-03T22:02:42.436Z,67.92
2023-03-03T22:05:09.826Z,67.82
2023-03-03T22:07:36.749Z,67.70
2023-03-03T22:10:04.527Z,67.38
2023-03-03T22:12:32.103Z,67.11
2023-03-03T22:15:02.484Z,67.30
2023-03-03T22:17:30.156Z,67.26
2023-03-03T22:19:57.675Z,67.17
2023-03-03T22:22:24.685Z,67.17
2023-03-03T22:24:53.548Z,67.19
2023-03-03T22:27:23.262Z,67.06
2023-03-03T22:29:50.593Z,67.22
2023-03-03T22:32:17.748Z,67.31
2023-03-03T22:34:47.140Z,67.31
2023-03-03T22:37:15.146Z,67.14
2023-03-03T22:39:43.069Z,67.15
2023-03-03T22:42:10.841Z,67.06
2023-03-03T22:44:37.693Z,66.92
2023-03-03T22:47:05.577Z,66.67
2023-03-03T22:49:32.445Z,66.38
2023-03-03T22:52:00.521Z,66.40
2023-03-03T22:54:31.398Z,66.64
2023-03-03T22:56:58.338Z,66.69
2023-03-03T22:59:25.396Z,66.67
2023-03-03T23:01:52.343Z,66.74
2023-03-03T23:04:19.503Z,66.64
2023-03-03T23:06:46.761Z,66.74
2023-03-03T23:09:15.819Z,66.60
2023-03-03T23:11:46.976Z,66.52
2023-03-03T23:14:14.584Z,66.38
2023-03-03T23:16:41.614Z,66.44
2023-03-03T23:19:08.969Z,66.25
2023-03-03T23:21:37.090Z,66.17
2023-03-03T23:24:10.765Z,66.24
2023-03-03T23:26:38.011Z,65.88
2023-03-03T23:29:04.972Z,65.96
2023-03-03T23:31:35.718Z,65.59
2023-03-03T23:34:02.988Z,65.79
2023-03-03T23:36:29.833Z,65.84
2023-03-03T23:38:56.721Z,65.78
2023-03-03T23:41:24.119Z,65.46
2023-03-03T23:43:50.980Z,65.45
2023-03-03T23:46:23.582Z,65.79
2023-03-03T23:48:50.685Z,65.68
2023-03-03T23:51:17.531Z,65.77
2023-03-03T23:53:45.982Z,65.73
2023-03-03T23:56:12.851Z,65.63
2023-03-03T23:58:39.728Z,65.97
